createdAt,value
2023-02-16T00:01:25.844Z,74.30
2023-02-16T00:03:54.755Z,68.63
2023-02-16T00:06:22.318Z,73.90
2023-02-16T00:08:52.509Z,70.37
2023-02-16T00:11:49.883Z,78.10
2023-02-16T00:14:18.277Z,76.53
2023-02-16T00:16:45.847Z,78.47
2023-02-16T00:19:18.665Z,73.60
2023-02-16T00:21:46.183Z,74.30
2023-02-16T00:24:15.295Z,69.73
2023-02-16T00:26:43.468Z,78.70
2023-02-16T00:29:16.431Z,63.40
2023-02-16T00:31:44.005Z,84.70
2023-02-16T00:34:26.549Z,69.37
2023-02-16T00:36:54.122Z,77.63
2023-02-16T00:39:24.868Z,70.83
2023-02-16T00:41:53.754Z,76.63
2023-02-16T00:44:30.759Z,72.10
2023-02-16T00:46:58.497Z,72.90
2023-02-16T00:49:26.016Z,75.70
2023-02-16T00:51:53.616Z,79.60
2023-02-16T00:54:21.163Z,82.00
2023-02-16T00:56:50.035Z,75.97
2023-02-16T00:59:19.708Z,63.03
2023-02-16T01:01:47.364Z,70.67
2023-02-16T01:04:21.359Z,75.43
2023-02-16T01:07:06.687Z,75.70
2023-02-16T01:09:52.266Z,74.97
2023-02-16T01:12:21.702Z,65.03
2023-02-16T01:14:53.165Z,66.87
2023-02-16T01:17:20.641Z,71.63
2023-02-16T01:19:48.120Z,84.57
2023-02-16T01:22:15.776Z,72.67
2023-02-16T01:24:43.269Z,78.40
2023-02-16T01:27:12.115Z,86.63
2023-02-16T01:29:40.936Z,102.87
2023-02-16T01:32:08.496Z,78.13
2023-02-16T01:34:36.028Z,71.07
2023-02-16T01:37:03.622Z,83.70
2023-02-16T01:39:31.111Z,82.93
2023-02-16T01:42:05.671Z,68.10
2023-02-16T01:44:36.611Z,72.37
2023-02-16T01:47:11.987Z,64.97
2023-02-16T01:49:39.484Z,77.20
2023-02-16T01:52:13.161Z,69.10
2023-02-16T01:54:44.507Z,69.10
2023-02-16T01:57:23.442Z,66.83
2023-02-16T02:00:08.401Z,67.60
2023-02-16T02:02:38.349Z,67.60
2023-02-16T02:05:30.258Z,63.53
2023-02-16T02:08:00.837Z,74.20
2023-02-16T02:10:32.127Z,77.47
2023-02-16T02:13:05.858Z,67.10
2023-02-16T02:15:34.267Z,59.60
2023-02-16T02:18:03.357Z,72.00
2023-02-16T02:21:00.559Z,63.43
2023-02-16T02:23:40.477Z,57.83
2023-02-16T02:26:36.180Z,54.27
2023-02-16T02:29:16.867Z,66.93
2023-02-16T02:31:51.021Z,57.53
2023-02-16T02:34:25.123Z,58.50
2023-02-16T02:36:58.485Z,72.10
2023-02-16T02:39:33.203Z,57.37
2023-02-16T02:42:04.825Z,65.03
2023-02-16T02:44:32.867Z,59.60
2023-02-16T02:47:00.661Z,49.33
2023-02-16T02:49:28.266Z,59.00
2023-02-16T02:51:55.954Z,56.20
2023-02-16T02:54:43.317Z,53.40
2023-02-16T02:57:33.523Z,64.40
2023-02-16T03:00:20.262Z,55.83
2023-02-16T03:02:50.635Z,68.73
2023-02-16T03:05:19.675Z,51.70
2023-02-16T03:07:47.927Z,55.27
2023-02-16T03:10:34.537Z,53.40
2023-02-16T03:13:05.371Z,53.53
2023-02-16T03:15:33.103Z,60.27
2023-02-16T03:18:18.799Z,62.87
2023-02-16T03:21:04.918Z,52.73
2023-02-16T03:23:50.478Z,52.73
2023-02-16T03:26:37.422Z,60.60
2023-02-16T03:29:21.884Z,58.10
2023-02-16T03:31:49.756Z,71.00
2023-02-16T03:34:18.449Z,46.23
2023-02-16T03:36:48.507Z,65.10
2023-02-16T03:39:16.248Z,58.60
2023-02-16T03:41:46.854Z,68.07
2023-02-16T03:44:15.910Z,57.97
2023-02-16T03:46:43.719Z,60.47
2023-02-16T03:49:11.347Z,49.10
2023-02-16T03:51:38.887Z,57.83
2023-02-16T03:54:06.481Z,65.60
2023-02-16T03:56:34.080Z,50.30
2023-02-16T03:59:01.572Z,70.53
2023-02-16T04:01:30.619Z,59.97
2023-02-16T04:03:58.204Z,57.23
2023-02-16T04:06:25.855Z,49.03
2023-02-16T04:08:54.489Z,66.37
2023-02-16T04:11:39.786Z,55.30
2023-02-16T04:14:07.590Z,71.93
2023-02-16T04:16:36.594Z,72.87
2023-02-16T04:19:04.106Z,51.03
2023-02-16T04:21:31.600Z,62.40
2023-02-16T04:23:59.128Z,61.33
2023-02-16T04:26:26.820Z,58.20
2023-02-16T04:28:54.324Z,58.13
2023-02-16T04:31:21.956Z,56.17
2023-02-16T04:33:50.880Z,54.03
2023-02-16T04:36:18.562Z,64.73
2023-02-16T04:38:46.110Z,48.13
2023-02-16T04:41:13.625Z,56.70
2023-02-16T04:43:41.171Z,46.70
2023-02-16T04:46:08.711Z,59.23
2023-02-16T04:48:36.197Z,52.53
2023-02-16T04:51:06.341Z,49.10
2023-02-16T04:53:34.012Z,59.33
2023-02-16T04:56:01.520Z,57.30
2023-02-16T04:58:29.090Z,53.17
2023-02-16T05:00:56.756Z,49.07
2023-02-16T05:03:24.286Z,56.27
2023-02-16T05:05:51.777Z,48.97
2023-02-16T05:08:20.954Z,49.27
2023-02-16T05:11:08.677Z,51.77
2023-02-16T05:14:02.312Z,55.70
2023-02-16T05:16:29.972Z,51.03
2023-02-16T05:18:58.819Z,47.37
2023-02-16T05:21:32.468Z,53.20
2023-02-16T05:24:03.089Z,44.93
2023-02-16T05:26:30.704Z,47.67
2023-02-16T05:28:58.302Z,52.77
2023-02-16T05:31:26.089Z,47.10
2023-02-16T05:33:53.697Z,51.10
2023-02-16T05:36:21.930Z,48.47
2023-02-16T05:38:49.466Z,51.90
2023-02-16T05:41:24.264Z,53.33
2023-02-16T05:43:53.099Z,49.83
2023-02-16T05:46:21.143Z,59.10
2023-02-16T05:48:48.973Z,49.93
2023-02-16T05:51:16.668Z,46.50
2023-02-16T05:53:44.227Z,45.17
2023-02-16T05:56:12.093Z,47.00
2023-02-16T05:58:41.029Z,50.57
2023-02-16T06:01:08.522Z,55.37
2023-02-16T06:03:36.623Z,52.03
2023-02-16T06:06:05.525Z,46.80
2023-02-16T06:08:33.732Z,57.03
2023-02-16T06:11:01.578Z,44.13
2023-02-16T06:13:29.269Z,55.10
2023-02-16T06:16:00.226Z,44.83
2023-02-16T06:18:27.989Z,54.93
2023-02-16T06:20:57.749Z,48.00
2023-02-16T06:23:25.258Z,47.80
2023-02-16T06:25:52.722Z,45.87
2023-02-16T06:28:20.208Z,54.37
2023-02-16T06:30:47.701Z,54.40
2023-02-16T06:33:16.527Z,53.40
2023-02-16T06:35:43.982Z,53.23
2023-02-16T06:38:11.677Z,54.30
2023-02-16T06:40:39.193Z,61.70
2023-02-16T06:43:06.713Z,50.30
2023-02-16T06:45:34.200Z,52.47
2023-02-16T06:48:01.830Z,46.97
2023-02-16T06:50:30.728Z,48.37
2023-02-16T06:52:58.211Z,48.07
2023-02-16T06:55:25.681Z,51.67
2023-02-16T06:57:53.164Z,54.40
2023-02-16T07:00:21.240Z,52.50
2023-02-16T07:02:48.706Z,46.80
2023-02-16T07:05:16.696Z,59.13
2023-02-16T07:07:45.513Z,57.60
2023-02-16T07:10:14.341Z,47.77
2023-02-16T07:12:41.900Z,64.00
2023-02-16T07:15:10.201Z,51.73
2023-02-16T07:17:37.722Z,53.80
2023-02-16T07:20:06.032Z,55.43
2023-02-16T07:22:33.826Z,52.67
2023-02-16T07:25:03.178Z,48.47
2023-02-16T07:27:30.672Z,51.03
2023-02-16T07:29:58.243Z,53.83
2023-02-16T07:32:25.845Z,52.43
2023-02-16T07:34:53.364Z,50.67
2023-02-16T07:37:20.815Z,43.73
2023-02-16T07:39:48.670Z,46.73
2023-02-16T07:42:17.546Z,52.13
2023-02-16T07:44:45.042Z,41.00
2023-02-16T07:47:13.366Z,47.05
2023-02-16T07:49:41.198Z,39.50
2023-02-16T07:52:08.718Z,46.67
2023-02-16T07:54:36.477Z,43.00
2023-02-16T07:57:04.083Z,42.00
2023-02-16T07:59:32.926Z,39.40
2023-02-16T08:02:00.618Z,46.40
2023-02-16T08:04:28.250Z,39.10
2023-02-16T08:06:55.708Z,43.07
2023-02-16T08:09:23.194Z,40.83
2023-02-16T08:11:50.701Z,42.67
2023-02-16T08:14:18.205Z,34.00
2023-02-16T08:16:47.055Z,32.00
2023-02-16T08:19:14.571Z,37.87
2023-02-16T08:21:42.099Z,34.80
2023-02-16T08:24:13.064Z,41.33
2023-02-16T08:26:43.137Z,32.40
2023-02-16T08:29:13.036Z,35.73
2023-02-16T08:31:41.713Z,35.47
2023-02-16T08:34:11.139Z,38.37
2023-02-16T08:36:39.965Z,38.10
2023-02-16T08:39:09.744Z,40.97
2023-02-16T08:41:37.991Z,38.23
2023-02-16T08:44:07.058Z,40.77
2023-02-16T08:46:35.254Z,39.57
2023-02-16T08:49:03.036Z,43.40
2023-02-16T08:51:34.705Z,45.10
2023-02-16T08:54:05.834Z,41.40
2023-02-16T08:56:34.403Z,36.53
2023-02-16T08:59:02.499Z,45.00
2023-02-16T09:01:30.789Z,34.67
2023-02-16T09:03:58.874Z,35.10
2023-02-16T09:06:26.473Z,34.20
2023-02-16T09:08:57.197Z,38.60
2023-02-16T09:11:25.708Z,30.87
2023-02-16T09:13:53.164Z,32.90
2023-02-16T09:16:22.375Z,33.80
2023-02-16T09:18:50.784Z,34.30
2023-02-16T09:21:20.836Z,33.40
2023-02-16T09:23:49.950Z,32.23
2023-02-16T09:26:20.252Z,37.50
2023-02-16T09:28:48.537Z,33.80
2023-02-16T09:31:19.961Z,32.87
2023-02-16T09:33:47.692Z,33.57
2023-02-16T09:36:15.171Z,39.47
2023-02-16T09:38:43.083Z,33.20
2023-02-16T09:41:23.781Z,40.47
2023-02-16T09:43:55.970Z,46.97
2023-02-16T09:46:25.341Z,36.30
2023-02-16T09:48:53.041Z,34.33
2023-02-16T09:51:33.920Z,37.43
2023-02-16T09:54:09.766Z,38.07
2023-02-16T09:56:41.968Z,36.40
2023-02-16T09:59:13.069Z,35.30
2023-02-16T10:01:45.497Z,43.03
2023-02-16T10:04:25.416Z,40.07
2023-02-16T10:07:00.885Z,38.80
2023-02-16T10:09:30.475Z,40.00
2023-02-16T10:12:08.333Z,41.63
2023-02-16T10:14:42.213Z,41.47
2023-02-16T10:17:16.878Z,39.10
2023-02-16T10:19:49.586Z,44.53
2023-02-16T10:22:34.058Z,39.27
2023-02-16T10:25:07.730Z,44.20
2023-02-16T10:27:39.770Z,47.13
2023-02-16T10:30:19.828Z,46.70
2023-02-16T10:32:57.934Z,43.53
2023-02-16T10:35:31.489Z,44.00
2023-02-16T10:38:03.706Z,46.67
2023-02-16T10:40:38.810Z,46.23
2023-02-16T10:43:14.028Z,41.97
2023-02-16T10:45:49.524Z,44.47
2023-02-16T10:48:20.716Z,48.53
2023-02-16T10:50:54.763Z,47.03
2023-02-16T10:53:24.803Z,41.10
2023-02-16T10:55:54.443Z,40.93
2023-02-16T10:58:27.680Z,43.00
2023-02-16T11:00:59.648Z,45.57
2023-02-16T11:03:32.885Z,46.07
2023-02-16T11:06:13.934Z,45.03
2023-02-16T11:08:50.917Z,45.10
2023-02-16T11:11:22.824Z,43.10
2023-02-16T11:14:02.546Z,46.93
2023-02-16T11:16:30.731Z,47.20
2023-02-16T11:19:00.293Z,48.10
2023-02-16T11:21:45.031Z,48.00
2023-02-16T11:24:25.324Z,41.30
2023-02-16T11:27:01.959Z,47.13
2023-02-16T11:29:31.428Z,47.20
2023-02-16T11:32:03.878Z,51.27
2023-02-16T11:34:34.116Z,38.80
2023-02-16T11:37:06.243Z,41.37
2023-02-16T11:39:37.454Z,44.67
2023-02-16T11:42:08.109Z,42.57
2023-02-16T11:44:43.643Z,50.13
2023-02-16T11:47:24.500Z,49.47
2023-02-16T11:50:09.871Z,55.23
2023-02-16T11:52:37.565Z,54.73
2023-02-16T11:55:05.998Z,52.87
2023-02-16T11:57:35.802Z,51.20
2023-02-16T12:00:15.717Z,58.37
2023-02-16T12:03:03.321Z,52.80
2023-02-16T12:05:39.357Z,52.63
2023-02-16T12:08:22.158Z,49.10
2023-02-16T12:11:04.373Z,45.40
2023-02-16T12:13:37.531Z,44.77
2023-02-16T12:16:16.760Z,43.03
2023-02-16T12:18:52.173Z,41.07
2023-02-16T12:21:23.766Z,46.10
2023-02-16T12:23:56.823Z,38.90
2023-02-16T12:26:36.592Z,44.97
2023-02-16T12:29:20.549Z,42.30
2023-02-16T12:32:05.910Z,44.47
2023-02-16T12:34:41.068Z,42.33
2023-02-16T12:37:16.808Z,41.23
2023-02-16T12:39:50.849Z,34.90
2023-02-16T12:42:38.819Z,39.47
2023-02-16T12:45:10.839Z,36.10
2023-02-16T12:47:44.059Z,35.90
2023-02-16T12:50:19.624Z,29.77
2023-02-16T12:52:49.958Z,33.63
2023-02-16T12:55:22.894Z,35.63
2023-02-16T12:57:56.031Z,31.87
2023-02-16T13:00:27.330Z,35.27
2023-02-16T13:03:03.044Z,31.40
2023-02-16T13:05:33.309Z,32.77
2023-02-16T13:08:08.272Z,29.77
2023-02-16T13:10:37.728Z,34.60
2023-02-16T13:13:07.400Z,28.67
2023-02-16T13:15:38.051Z,32.10
2023-02-16T13:18:13.782Z,29.97
2023-02-16T13:20:45.592Z,31.53
2023-02-16T13:23:31.763Z,23.00
2023-02-16T13:26:11.974Z,27.57
2023-02-16T13:28:55.568Z,26.70
2023-02-16T13:31:30.615Z,26.20
2023-02-16T13:34:13.793Z,29.30
2023-02-16T13:36:50.713Z,23.50
2023-02-16T13:39:32.681Z,33.40
2023-02-16T13:42:44.040Z,28.93
2023-02-16T13:45:15.928Z,31.20
2023-02-16T13:47:47.457Z,30.07
2023-02-16T13:50:31.008Z,22.37
2023-02-16T13:53:02.149Z,26.17
2023-02-16T13:55:33.567Z,28.07
2023-02-16T13:58:07.574Z,28.37
2023-02-16T14:00:37.994Z,27.97
2023-02-16T14:03:12.238Z,25.20
2023-02-16T14:05:43.519Z,24.83
2023-02-16T14:08:30.336Z,26.77
2023-02-16T14:11:00.620Z,27.97
2023-02-16T14:13:29.752Z,24.23
2023-02-16T14:16:02.424Z,27.80
2023-02-16T14:18:33.646Z,27.50
2023-02-16T14:21:03.372Z,30.70
2023-02-16T14:23:34.401Z,24.80
2023-02-16T14:26:03.543Z,29.33
2023-02-16T14:29:12.431Z,28.93
2023-02-16T14:31:48.239Z,29.47
2023-02-16T14:34:20.244Z,28.13
2023-02-16T14:37:11.656Z,29.07
2023-02-16T14:40:04.050Z,26.67
2023-02-16T14:42:29.874Z,29.20
2023-02-16T14:45:10.131Z,25.70
2023-02-16T14:47:45.747Z,29.50
2023-02-16T14:50:32.869Z,29.27
2023-02-16T14:53:20.657Z,27.10
2023-02-16T14:56:19.427Z,30.77
2023-02-16T14:58:52.991Z,26.70
2023-02-16T15:01:22.511Z,25.43
2023-02-16T15:03:51.559Z,29.20
2023-02-16T15:06:23.773Z,31.63
2023-02-16T15:08:58.165Z,29.27
2023-02-16T15:11:31.818Z,32.77
2023-02-16T15:14:04.721Z,27.10
2023-02-16T15:16:33.499Z,29.17
2023-02-16T15:19:04.412Z,24.80
2023-02-16T15:21:31.939Z,30.40
2023-02-16T15:24:02.777Z,30.87
2023-02-16T15:26:33.062Z,25.80
2023-02-16T15:29:04.988Z,32.67
2023-02-16T15:31:34.527Z,31.07
2023-02-16T15:34:05.565Z,32.73
2023-02-16T15:36:35.305Z,31.30
2023-02-16T15:39:06.958Z,32.60
2023-02-16T15:41:36.178Z,30.00
2023-02-16T15:44:05.723Z,31.70
2023-02-16T15:46:36.564Z,31.13
2023-02-16T15:49:12.464Z,32.17
2023-02-16T15:51:43.004Z,32.67
2023-02-16T15:54:20.944Z,33.53
2023-02-16T15:56:49.663Z,31.20
2023-02-16T15:59:32.060Z,37.63
2023-02-16T16:02:02.677Z,32.70
2023-02-16T16:04:31.845Z,35.77
2023-02-16T16:07:00.103Z,26.87
2023-02-16T16:09:31.232Z,29.90
2023-02-16T16:12:01.861Z,32.60
2023-02-16T16:14:29.931Z,34.23
2023-02-16T16:16:57.570Z,27.77
2023-02-16T16:19:33.212Z,28.40
2023-02-16T16:22:01.174Z,34.33
2023-02-16T16:24:35.259Z,30.77
2023-02-16T16:27:08.067Z,32.00
2023-02-16T16:29:41.092Z,34.23
2023-02-16T16:32:18.590Z,31.47
2023-02-16T16:34:49.593Z,30.27
2023-02-16T16:37:29.657Z,34.67
2023-02-16T16:40:05.229Z,32.53
2023-02-16T16:42:34.088Z,31.50
2023-02-16T16:45:07.607Z,34.70
2023-02-16T16:47:38.176Z,32.77
2023-02-16T16:50:19.323Z,30.17
2023-02-16T16:52:48.659Z,35.33
2023-02-16T16:55:30.324Z,35.13
2023-02-16T16:58:00.335Z,36.00
2023-02-16T17:00:30.713Z,29.60
2023-02-16T17:02:58.407Z,29.37
2023-02-16T17:05:28.062Z,34.83
2023-02-16T17:07:55.520Z,32.97
2023-02-16T17:10:25.918Z,28.07
2023-02-16T17:12:59.658Z,29.90
2023-02-16T17:15:40.646Z,34.97
2023-02-16T17:18:10.574Z,27.23
2023-02-16T17:20:38.126Z,31.93
2023-02-16T17:23:06.056Z,31.83
2023-02-16T17:25:37.136Z,32.77
2023-02-16T17:28:06.705Z,34.33
2023-02-16T17:30:42.872Z,31.17
2023-02-16T17:33:11.116Z,29.33
2023-02-16T17:35:41.019Z,34.80
2023-02-16T17:38:20.580Z,29.07
2023-02-16T17:40:48.376Z,26.37
2023-02-16T17:43:21.713Z,32.37
2023-02-16T17:45:50.056Z,29.90
2023-02-16T17:48:20.168Z,27.53
2023-02-16T17:50:49.229Z,32.27
2023-02-16T17:53:18.738Z,30.00
2023-02-16T17:55:47.448Z,32.07
2023-02-16T17:58:17.271Z,37.17
2023-02-16T18:00:47.611Z,33.60
2023-02-16T18:03:15.427Z,32.70
2023-02-16T18:05:43.162Z,36.90
2023-02-16T18:08:11.964Z,30.93
2023-02-16T18:10:41.715Z,30.40
2023-02-16T18:13:10.760Z,30.20
2023-02-16T18:15:40.685Z,32.97
2023-02-16T18:18:11.219Z,28.03
2023-02-16T18:20:38.903Z,30.97
2023-02-16T18:23:06.411Z,34.40
2023-02-16T18:25:34.094Z,34.10
2023-02-16T18:28:01.581Z,34.83
2023-02-16T18:30:29.138Z,33.90
2023-02-16T18:32:58.197Z,32.67
2023-02-16T18:35:25.644Z,32.30
2023-02-16T18:37:53.298Z,36.33
2023-02-16T18:40:22.093Z,31.70
2023-02-16T18:42:49.694Z,38.37
2023-02-16T18:45:17.607Z,35.73
2023-02-16T18:47:45.262Z,35.70
2023-02-16T18:50:14.577Z,34.60
2023-02-16T18:52:43.246Z,41.77
2023-02-16T18:55:11.190Z,38.40
2023-02-16T18:57:39.071Z,35.57
2023-02-16T19:00:08.737Z,37.43
2023-02-16T19:02:37.061Z,36.80
2023-02-16T19:05:06.822Z,36.80
2023-02-16T19:07:36.131Z,37.03
2023-02-16T19:10:04.431Z,35.50
2023-02-16T19:12:32.215Z,36.93
2023-02-16T19:15:00.449Z,38.23
2023-02-16T19:17:27.987Z,39.17
2023-02-16T19:19:55.647Z,38.57
2023-02-16T19:22:26.826Z,39.70
2023-02-16T19:24:57.894Z,32.20
2023-02-16T19:27:28.029Z,45.70
2023-02-16T19:29:58.203Z,39.63
2023-02-16T19:32:26.915Z,36.77
2023-02-16T19:35:00.437Z,35.70
2023-02-16T19:37:29.286Z,40.80
2023-02-16T19:39:58.398Z,38.13
2023-02-16T19:42:26.012Z,34.70
2023-02-16T19:44:56.551Z,36.77
2023-02-16T19:47:24.193Z,34.87
2023-02-16T19:49:51.895Z,40.00
2023-02-16T19:52:19.424Z,36.90
2023-02-16T19:54:47.075Z,45.53
2023-02-16T19:57:16.169Z,41.67
2023-02-16T19:59:46.582Z,32.07
2023-02-16T20:02:16.700Z,37.40
2023-02-16T20:04:44.368Z,35.83
2023-02-16T20:07:12.149Z,39.40
2023-02-16T20:09:48.624Z,33.00
2023-02-16T20:12:17.524Z,36.57
2023-02-16T20:14:45.280Z,35.00
2023-02-16T20:17:12.919Z,35.60
2023-02-16T20:19:40.733Z,35.57
2023-02-16T20:22:08.439Z,37.10
2023-02-16T20:24:36.483Z,39.80
2023-02-16T20:27:04.995Z,36.57
2023-02-16T20:29:35.211Z,34.43
2023-02-16T20:32:04.918Z,40.23
2023-02-16T20:34:33.633Z,32.90
2023-02-16T20:37:01.393Z,36.13
2023-02-16T20:39:33.124Z,30.93
2023-02-16T20:42:02.714Z,42.77
2023-02-16T20:44:30.374Z,34.67
2023-02-16T20:47:01.616Z,40.60
2023-02-16T20:49:29.298Z,34.00
2023-02-16T20:51:56.985Z,39.73
2023-02-16T20:54:24.569Z,40.20
2023-02-16T20:56:52.186Z,35.13
2023-02-16T20:59:19.646Z,41.10
2023-02-16T21:01:50.258Z,35.03
2023-02-16T21:04:20.861Z,37.70
2023-02-16T21:06:48.643Z,39.33
2023-02-16T21:09:16.720Z,31.17
2023-02-16T21:11:44.516Z,32.73
2023-02-16T21:14:15.430Z,34.07
2023-02-16T21:16:43.480Z,34.87
2023-02-16T21:19:22.243Z,33.50
2023-02-16T21:21:53.645Z,30.23
2023-02-16T21:24:28.624Z,31.63
2023-02-16T21:26:58.404Z,31.03
2023-02-16T21:29:26.012Z,34.00
2023-02-16T21:31:53.687Z,31.37
2023-02-16T21:34:21.683Z,29.70
2023-02-16T21:36:49.314Z,31.77
2023-02-16T21:39:18.269Z,33.90
2023-02-16T21:41:47.122Z,34.07
2023-02-16T21:44:18.986Z,32.37
2023-02-16T21:46:47.942Z,33.37
2023-02-16T21:49:17.136Z,33.23
2023-02-16T21:51:45.409Z,35.57
2023-02-16T21:54:15.514Z,32.10
2023-02-16T21:56:45.483Z,34.40
2023-02-16T21:59:14.497Z,30.20
2023-02-16T22:01:43.724Z,28.90
2023-02-16T22:04:12.473Z,35.27
2023-02-16T22:06:42.491Z,29.13
2023-02-16T22:09:14.065Z,29.37
2023-02-16T22:11:42.069Z,32.80
2023-02-16T22:14:11.491Z,28.50
2023-02-16T22:16:39.616Z,33.30
2023-02-16T22:19:09.070Z,30.67
2023-02-16T22:21:37.837Z,33.03
2023-02-16T22:24:06.804Z,29.47
2023-02-16T22:26:35.876Z,32.00
2023-02-16T22:29:09.388Z,31.03
2023-02-16T22:31:38.965Z,31.17
2023-02-16T22:34:13.607Z,30.00
2023-02-16T22:36:42.199Z,34.10
2023-02-16T22:39:09.820Z,31.37
2023-02-16T22:41:39.900Z,31.33
2023-02-16T22:44:10.106Z,26.10
2023-02-16T22:46:39.112Z,33.23
2023-02-16T22:49:08.907Z,33.80
2023-02-16T22:51:37.515Z,30.70
2023-02-16T22:54:08.552Z,29.90
2023-02-16T22:56:37.619Z,34.00
2023-02-16T22:59:07.278Z,33.70
2023-02-16T23:01:35.348Z,30.43
2023-02-16T23:04:06.141Z,30.83
2023-02-16T23:06:37.555Z,30.53
2023-02-16T23:09:07.937Z,38.67
2023-02-16T23:11:37.495Z,30.70
2023-02-16T23:14:05.908Z,34.50
2023-02-16T23:16:35.777Z,31.93
2023-02-16T23:19:05.165Z,27.17
2023-02-16T23:21:34.090Z,28.80
2023-02-16T23:24:05.694Z,28.63
2023-02-16T23:26:33.666Z,30.77
2023-02-16T23:29:08.401Z,29.17
2023-02-16T23:31:37.418Z,31.90
2023-02-16T23:34:07.425Z,32.07
2023-02-16T23:36:36.217Z,29.20
2023-02-16T23:39:06.212Z,30.13
2023-02-16T23:41:33.735Z,27.77
2023-02-16T23:44:01.435Z,28.00
2023-02-16T23:46:29.004Z,27.60
2023-02-16T23:48:56.664Z,30.53
2023-02-16T23:51:25.466Z,28.07
2023-02-16T23:53:53.009Z,30.30
2023-02-16T23:56:27.338Z,33.20
2023-02-16T23:58:58.366Z,31.73
